METAR Data
IDs: Format: Raw Decoded Include TAF

Data at: 0631 UTC 11 Dec 2018

PAUT 110615Z AUTO 31019G27KT 10SM -SN SCT011 SCT016 OVC033 00/M03 A2928 RMK AO2 T00021033
PAUT 110555Z AUTO 32021G25KT 3SM -SN SCT014 BKN027 OVC044 00/M03 A2926 RMK AO2 T00031034 10023 20000
PAUT 110535Z AUTO 35008KT 10SM -RA SCT034 BKN047 OVC060 01/M04 A2925 RMK AO2 T00071038
PAUT 110515Z AUTO 34013G19KT 10SM SCT035 BKN060 OVC070 01/M03 A2923 RMK AO2 T00101035
PAUT 110455Z AUTO 35012G24KT 10SM SCT039 BKN050 OVC080 01/M04 A2922 RMK AO2 T00071040
PAUT 110435Z AUTO 34019G26KT 10SM UP SCT025 BKN041 OVC050 01/M04 A2920 RMK AO2 T00061036
PAUT 110415Z AUTO 32020G23KT 7SM -SN SCT010 BKN026 OVC037 00/M02 A2920 RMK AO2 T00021024
PAUT 110355Z AUTO 31023G31KT 4SM -SN SCT013 OVC024 01/M02 A2919 RMK AO2 T00051022
PAUT 110335Z AUTO 31018G24KT 10SM SCT018 BKN024 OVC041 01/M01 A2918 RMK AO2 T00071015
PAUT 110315Z AUTO 33019G25KT 5SM -SN SCT005 BKN021 OVC060 00/M01 A2917 RMK AO2 T00011012
PAUT 110255Z AUTO 32026G33KT 3SM UP SCT005 SCT028 BKN040 00/M01 A2915 RMK AO2 T00041014
PAUT 110235Z AUTO 31022G32KT 5SM -DZ SCT019 BKN041 OVC049 01/M02 A2914 RMK AO2 T00111017
PAUT 110215Z AUTO 30025G31KT 10SM SCT031 SCT037 OVC044 02/M03 A2912 RMK AO2 T00181029
PAUT 110155Z AUTO 30024G31KT 10SM SCT028 SCT035 BKN043 02/M02 A2911 RMK AO2 T00201021
PAUT 110135Z AUTO 31025G33KT 10SM -DZ BKN029 BKN037 OVC045 02/M02 A2910 RMK AO2 T00201016
PAUT 110115Z AUTO 31027G33KT 10SM SCT028 BKN044 OVC080 02/M01 A2908 RMK AO2 T00201014
PAUT 110055Z AUTO 31027G35KT 10SM SCT017 SCT034 OVC047 02/M01 A2906 RMK AO2 T00191010
PAUT 110035Z AUTO 31030G35KT 4SM DZ SCT016 BKN039 OVC047 02/M01 A2905 RMK AO2 T00161006
PAUT 110015Z AUTO 30026G35KT 7SM SCT019 BKN035 OVC041 02/M01 A2904 RMK AO2 T00201013
PAUT 102355Z AUTO 31024G34KT 10SM OVC035 02/M02 A2903 RMK AO2 60002 T00221017 10037 20021
PAUT 102335Z AUTO 31025G35KT 10SM SCT027 OVC034 02/M01 A2902 RMK AO2 T00231015
PAUT 102315Z AUTO 31029G40KT 10SM BKN027 OVC032 02/M01 A2899 RMK AO2 T00241010
PAUT 102255Z AUTO 31027G33KT 10SM SCT027 BKN033 OVC041 03/00 A2898 RMK AO2 P0001 T00261003
PAUT 102235Z AUTO 33025G34KT 10SM SCT022 BKN036 OVC043 03/00 A2897 RMK AO2 P0001 T00261002
PAUT 102215Z AUTO 32030G37KT 10SM SCT021 SCT025 BKN030 03/00 A2893 RMK AO2 P0001 T00291002
PAUT 102155Z AUTO 33025G39KT 10SM SCT019 SCT028 BKN070 03/00 A2892 RMK AO2 T00310003
PAUT 102135Z AUTO 32033G39KT 10SM SCT013 BKN036 OVC060 03/01 A2889 RMK AO2 T00320007
PAUT 102115Z AUTO 32022G32KT 7SM -DZ SCT012 BKN019 OVC033 03/01 A2889 RMK AO2 T00250008
PAUT 102055Z AUTO 32026G37KT 5SM -DZ SCT011 BKN031 OVC070 03/01 A2886 RMK AO2 60001 T00280005
PAUT 102035Z AUTO 30024G32KT 10SM SCT035 BKN070 OVC110 04/01 A2884 RMK AO2 T00350010
PAUT 102015Z AUTO 31023G31KT 10SM SCT015 BKN090 OVC110 03/01 A2882 RMK AO2 T00310007
PAUT 101955Z AUTO 32027G36KT 10SM SCT014 BKN028 BKN055 03/01 A2880 RMK AO2 T00310008
PAUT 101935Z AUTO 31023G34KT 5SM -RA SCT014 BKN024 BKN032 03/00 A2878 RMK AO2 T00280002
PAUT 101915Z AUTO 32024G32KT 10SM SCT019 BKN026 04/01 A2876 RMK AO2 T00350009
PAUT 101855Z AUTO 31025G37KT 7SM -RA BKN016 OVC025 03/02 A2873 RMK AO2 P0001 T00330015
PAUT 101835Z AUTO 32027G39KT 5SM RA BKN015 OVC020 03/01 A2870 RMK AO2 P0001 T00260010
PAUT 101815Z AUTO 30031G37KT 4SM -RA BKN015 OVC024 03/01 A2867 RMK AO2 P0001 T00270013
PAUT 101755Z AUTO 30028G39KT 10SM SCT015 BKN020 OVC032 03/02 A2864 RMK AO2 P0002 60004 T00330016 10034 20015
PAUT 101735Z AUTO 28029G38KT 7SM -RA SCT011 BKN020 OVC031 03/01 A2863 RMK AO2 P0002 T00310013
PAUT 101715Z AUTO 28012G15KT 7SM RA SCT013 BKN020 OVC026 02/01 A2863 RMK AO2 P0001 T00200007
PAUT 101655Z AUTO 24009KT 5SM DZ BKN013 OVC019 02/00 A2863 RMK AO2 P0002 T00160002
PAUT 101635Z AUTO 23009KT 7SM -RA SCT010 BKN017 OVC023 02/00 A2862 RMK AO2 P0001 T00160001
PAUT 101615Z AUTO 21014G20KT 10SM SCT010 BKN017 OVC022 02/00 A2863 RMK AO2 T00160001
PAUT 101555Z AUTO 24011G17KT 7SM -RA BKN014 OVC023 02/00 A2864 RMK AO2 T00161003
PAUT 101535Z AUTO 22014G20KT 10SM SCT014 BKN027 OVC110 02/00 A2863 RMK AO2 T00241004
PAUT 101515Z AUTO 21012G20KT 10SM SCT035 SCT044 02/M01 A2863 RMK AO2 T00241006
PAUT 101455Z AUTO 21011KT 10SM SCT033 02/M01 A2864 RMK AO2 T00211011
PAUT 101435Z AUTO 22011KT 10SM BKN033 BKN043 02/M01 A2865 RMK AO2 T00221015
PAUT 101415Z AUTO 21008KT 10SM BKN033 BKN039 03/M02 A2866 RMK AO2 T00251016
PAUT 101355Z AUTO 23010KT 10SM BKN036 02/M02 A2866 RMK AO2 T00241018
PAUT 101335Z AUTO 22008KT 10SM SCT038 SCT100 02/M02 A2866 RMK AO2 T00211024
PAUT 101315Z AUTO 23012KT 10SM SCT040 SCT110 02/M02 A2866 RMK AO2 T00221025
PAUT 101255Z AUTO 23017KT 10SM SCT042 02/M02 A2866 RMK AO2 T00221023
PAUT 101235Z AUTO 10SM SCT044 02/M02 A2866 RMK AO2 T00241023
PAUT 101215Z AUTO 24010G15KT 10SM CLR 02/M02 A2866 RMK AO2 T00241022
PAUT 101155Z AUTO 22012KT 10SM SCT041 SCT047 02/M02 A2867 RMK AO2 70014 T00241021 10026 20006
PAUT 101135Z AUTO 23016G19KT 10SM SCT045 02/M02 A2867 RMK AO2 T00231017
PAUT 101115Z AUTO 22008KT 10SM BKN043 02/M01 A2868 RMK AO2 T00211008
PAUT 101055Z AUTO 21012G21KT 10SM BKN043 02/M01 A2868 RMK AO2 T00211013
PAUT 101035Z AUTO 22013G18KT 10SM SCT036 SCT043 02/M02 A2869 RMK AO2 T00181021
PAUT 101015Z AUTO 23010KT 10SM SCT038 01/M02 A2869 RMK AO2 T00131020
PAUT 100955Z AUTO 21011KT 10SM SCT040 01/M02 A2869 RMK AO2 T00141019
PAUT 100935Z AUTO 24010KT 10SM SCT035 01/M02 A2870 RMK AO2 T00141021
PAUT 100915Z AUTO 23011KT 10SM SCT039 SCT050 02/M02 A2869 RMK AO2 T00151020
PAUT 100855Z AUTO 25008KT 10SM SCT035 SCT042 SCT050 02/M01 A2869 RMK AO2 T00151014 400470006
PAUT 100835Z AUTO 24006KT 10SM SCT043 SCT055 BKN090 01/M01 A2869 RMK AO2 T00131010
PAUT 100815Z AUTO 26008KT 10SM SCT070 OVC090 01/M01 A2869 RMK AO2 T00101007
PAUT 100755Z AUTO 25013KT 10SM SCT006 BKN070 OVC080 01/00 A2869 RMK AO2 T00061003
PAUT 100735Z AUTO 27021G26KT 4SM -SN SCT008 BKN028 OVC038 01/00 A2869 RMK AO2 T00121003
PAUT 100715Z AUTO 29021G27KT 10SM SCT028 BKN035 OVC070 03/00 A2867 RMK AO2 T00251001
PAUT 100655Z AUTO 00000KT 10SM SCT031 BKN075 OVC080 02/00 A2866 RMK AO2 T00211003
PAUT 100635Z AUTO 35004KT 10SM -RA OVC031 02/00 A2866 RMK AO2 T00210000
PAUT 100615Z AUTO 33005KT 10SM SCT029 BKN034 OVC070 02/01 A2867 RMK AO2 T00220007
PAUT 100555Z AUTO 24003KT 10SM BKN045 BKN065 OVC100 02/01 A2867 RMK AO2 T00180006 10035 20008
PAUT 100535Z AUTO 14003KT 10SM BKN048 OVC110 01/01 A2867 RMK AO2 T00140005
PAUT 100515Z AUTO 14004KT 10SM BKN090 OVC120 02/01 A2867 RMK AO2 T00150006
PAUT 100455Z AUTO 14004KT 10SM SCT075 OVC100 02/01 A2868 RMK AO2 T00150005
PAUT 100435Z AUTO 13004KT 10SM SCT075 BKN090 OVC110 02/01 A2868 RMK AO2 T00150005
PAUT 100415Z AUTO 00000KT 10SM OVC090 02/00 A2869 RMK AO2 T00150004
PAUT 100355Z AUTO 13004KT 10SM OVC100 02/01 A2870 RMK AO2 T00160006
PAUT 100335Z AUTO 15005KT 10SM OVC100 01/00 A2871 RMK AO2 T00120002
PAUT 100315Z AUTO 13003KT 10SM SCT065 BKN085 OVC100 01/00 A2872 RMK AO2 T00100000
PAUT 100255Z AUTO 10SM SCT065 BKN110 01/00 A2874 RMK AO2 T00080000
PAUT 100235Z AUTO 00000KT 10SM SCT070 BKN120 01/00 A2874 RMK AO2 T00100003
PAUT 100215Z AUTO 00000KT 10SM BKN120 01/00 A2874 RMK AO2 T00110004
PAUT 100155Z AUTO 13003KT 10SM SCT006 SCT040 SCT120 02/01 A2875 RMK AO2 T00160008
PAUT 100135Z AUTO 29005KT 10SM BKN004 BKN030 BKN040 02/01 A2876 RMK AO2 T00160010
PAUT 100115Z AUTO 31009KT 290V360 10SM BKN004 BKN012 OVC017 02/01 A2878 RMK AO2 T00180011
PAUT 100055Z AUTO 31015G21KT 7SM BKN004 BKN010 OVC015 02/01 A2878 RMK AO2 T00160010
PAUT 100035Z AUTO 30017KT 10SM BKN006 OVC010 02/01 A2879 RMK AO2 T00190010
PAUT 100015Z AUTO 29014G21KT 10SM SCT010 BKN016 OVC029 04/03 A2878 RMK AO2 T00350025
PAUT 092355Z AUTO 20013G21KT 1 1/4SM -RA OVC008 03/02 A2879 RMK AO2 P0006 60013 T00340023 10047 20015
PAUT 092335Z AUTO 19016G24KT 7SM -RA OVC008 03/02 A2881 RMK AO2 P0005 T00290019
PAUT 092315Z AUTO 18017G22KT 2 1/2SM -RA BKN008 OVC011 02/01 A2883 RMK AO2 P0004 T00160005
PAUT 092255Z AUTO 18016G19KT 3SM -RA BKN008 OVC014 02/01 A2886 RMK AO2 P0005 T00210007
PAUT 092235Z AUTO 19015KT 5SM -RA BKN010 OVC017 03/01 A2888 RMK AO2 P0002 T00260006
PAUT 092215Z AUTO 21015G21KT 5SM -RA BKN012 OVC019 03/00 A2889 RMK AO2 P0001 T00300002
PAUT 092155Z AUTO 21017G20KT 4SM -RA SCT017 BKN028 OVC070 03/00 A2890 RMK AO2 T00311002
PAUT 092135Z AUTO 20019G25KT 10SM SCT021 SCT032 OVC065 04/00 A2891 RMK AO2 T00401001
PAUT 092115Z AUTO 20021G26KT 10SM SCT022 BKN075 BKN090 05/00 A2892 RMK AO2 T00460002
PAUT 092055Z AUTO 20016G20KT 10SM BKN080 BKN120 04/M02 A2893 RMK AO2 T00421025
PAUT 092035Z AUTO 21013KT 10SM BKN090 04/M03 A2894 RMK AO2 T00381026
PAUT 092015Z AUTO 20014KT 10SM SCT110 04/M03 A2895 RMK AO2 T00381026
PAUT 091955Z AUTO 20010G15KT 10SM CLR 03/M02 A2896 RMK AO2 T00341025
PAUT 091935Z AUTO 21008KT 10SM CLR 03/M03 A2896 RMK AO2 T00301027
PAUT 091915Z AUTO 23009G15KT 10SM CLR 03/M02 A2897 RMK AO2 T00271023
PAUT 091855Z AUTO 24010KT 10SM CLR 03/M02 A2897 RMK AO2 T00271022
PAUT 091835Z AUTO 10SM SCT045 03/M02 A2897 RMK AO2 T00281017